Time;durP1;ratioP1;P1;durP2;ratioP2;P2;SDS_P1;SDS_P2;PMS_P1;PMS_P2;Temp;Humidity;BMP_temperature;BMP_pressure;BME280_temperature;BME280_humidity;BME280_pressure;Samples;Min_cycle;Max_cycle;Signal;HPM_P1;HPM_P2
2022/01/09 00:02:07;;;;;;;18.02;8.18;;;;;;;-4.59;74.12;100367.91;5092602;28;20142;-87
2022/01/09 00:04:33;;;;;;;16.30;7.85;;;;;;;-4.57;74.21;100384.19;5100811;28;20058;-86
2022/01/09 00:07:01;;;;;;;17.95;7.32;;;;;;;-4.42;73.73;100392.94;5092815;28;20168;-85
2022/01/09 00:09:28;;;;;;;13.80;7.35;;;;;;;-4.37;73.96;100391.56;5075344;28;20048;-85
2022/01/09 00:11:55;;;;;;;15.68;8.15;;;;;;;-4.38;73.60;100388.94;5060159;28;20504;-85
2022/01/09 00:14:22;;;;;;;16.13;8.00;;;;;;;-4.39;73.66;100392.25;5093925;28;20048;-85
2022/01/09 00:16:49;;;;;;;15.20;7.75;;;;;;;-4.47;73.74;100380.63;5076965;28;20407;-85
2022/01/09 00:19:16;;;;;;;13.27;7.07;;;;;;;-4.43;74.07;100395.34;5094672;28;20055;-85
2022/01/09 00:21:43;;;;;;;14.30;7.15;;;;;;;-4.53;73.84;100376.88;5117230;28;20040;-86
2022/01/09 00:24:10;;;;;;;14.88;6.88;;;;;;;-4.43;74.06;100391.16;5106007;28;20129;-83
2022/01/09 00:26:37;;;;;;;12.82;6.57;;;;;;;-4.45;73.85;100392.72;5098270;28;20075;-86
2022/01/09 00:29:06;;;;;;;16.73;7.38;;;;;;;-4.49;73.82;100410.25;5049369;28;20048;-86
2022/01/09 00:31:34;;;;;;;15.20;6.75;;;;;;;-4.54;74.12;100402.25;5079715;28;20143;-86
2022/01/09 00:34:00;;;;;;;14.65;6.72;;;;;;;-4.57;74.39;100412.25;5061632;28;20123;-87
2022/01/09 00:36:27;;;;;;;12.38;6.47;;;;;;;-4.64;74.43;100405.81;5056979;28;20053;-87
2022/01/09 00:38:54;;;;;;;15.57;6.15;;;;;;;-4.72;74.33;100394.16;5080418;28;20056;-86
2022/01/09 00:41:21;;;;;;;13.95;7.57;;;;;;;-4.64;74.64;100397.28;5080411;28;20422;-85
2022/01/09 00:43:48;;;;;;;15.30;6.65;;;;;;;-4.68;74.31;100364.69;5056325;28;20460;-86
2022/01/09 00:46:17;;;;;;;12.57;6.75;;;;;;;-4.60;74.31;100383.97;5055842;28;20063;-84
2022/01/09 00:48:44;;;;;;;19.73;6.95;;;;;;;-4.56;74.30;100383.41;5072331;28;20048;-86
2022/01/09 00:51:10;;;;;;;13.48;6.55;;;;;;;-4.56;74.07;100360.44;5073083;28;20056;-87
2022/01/09 00:53:38;;;;;;;14.63;6.90;;;;;;;-4.42;74.11;100377.63;5047922;28;20504;-85
2022/01/09 00:56:05;;;;;;;13.18;6.18;;;;;;;-4.41;73.83;100376.88;5052952;28;20065;-85
2022/01/09 00:58:31;;;;;;;15.52;7.13;;;;;;;-4.46;73.69;100355.22;5051828;28;20053;-85
2022/01/09 01:00:59;;;;;;;14.18;7.13;;;;;;;-4.36;74.05;100372.97;5052121;28;20095;-86
2022/01/09 01:03:26;;;;;;;12.93;6.68;;;;;;;-4.32;73.61;100353.66;5033374;28;20041;-87
2022/01/09 01:05:53;;;;;;;12.35;6.10;;;;;;;-4.39;73.46;100351.44;5034387;28;20411;-87
2022/01/09 01:08:20;;;;;;;15.10;6.47;;;;;;;-4.42;73.77;100348.69;5035291;28;20063;-86
2022/01/09 01:10:47;;;;;;;14.25;7.05;;;;;;;-4.38;73.53;100360.88;5035896;28;20521;-86
2022/01/09 01:13:14;;;;;;;14.05;6.45;;;;;;;-4.45;73.57;100359.56;5035044;28;20053;-84
2022/01/09 01:15:41;;;;;;;12.35;6.40;;;;;;;-4.45;73.52;100368.88;5056943;28;20060;-85
2022/01/09 01:18:09;;;;;;;14.50;7.25;;;;;;;-4.44;73.68;100363.88;5034568;28;20045;-86
2022/01/09 01:20:36;;;;;;;13.65;6.75;;;;;;;-4.55;74.25;100334.19;5050697;28;20099;-83
2022/01/09 01:23:03;;;;;;;11.82;6.68;;;;;;;-4.41;73.28;100348.81;5051968;28;20053;-85
2022/01/09 01:25:30;;;;;;;11.82;5.72;;;;;;;-4.41;73.65;100336.06;5071613;28;20052;-84
2022/01/09 01:27:57;;;;;;;15.73;6.78;;;;;;;-4.54;73.75;100321.56;5071184;28;20147;-84
2022/01/09 01:30:24;;;;;;;10.73;6.03;;;;;;;-4.40;73.33;100342.03;5073014;28;20048;-83
2022/01/09 01:32:51;;;;;;;15.85;7.15;;;;;;;-4.43;73.61;100329.97;5054761;28;20052;-84
2022/01/09 01:35:19;;;;;;;15.07;7.07;;;;;;;-4.37;73.53;100355.88;5071080;28;20098;-83
2022/01/09 01:37:47;;;;;;;14.57;6.88;;;;;;;-4.48;73.47;100322.75;5073066;28;20052;-83
2022/01/09 01:40:17;;;;;;;16.75;7.22;;;;;;;-4.72;73.55;100273.47;5054694;28;20052;-83
2022/01/09 01:42:46;;;;;;;15.85;6.38;;;;;;;-4.58;73.72;100295.72;5072221;28;20577;-83
2022/01/09 01:45:13;;;;;;;13.88;6.88;;;;;;;-4.60;73.61;100316.03;5076018;28;20052;-84
2022/01/09 01:47:40;;;;;;;15.75;6.72;;;;;;;-4.55;73.82;100313.78;5082157;28;20048;-83
2022/01/09 01:50:11;;;;;;;14.98;6.82;;;;;;;-4.40;74.07;100325.06;5083823;28;20691;-83
2022/01/09 01:52:44;;;;;;;16.80;7.43;;;;;;;-4.41;73.73;100325.84;5059190;28;20052;-84
2022/01/09 01:55:12;;;;;;;18.83;6.20;;;;;;;-4.40;73.51;100327.63;5069914;28;20048;-83
2022/01/09 01:57:42;;;;;;;14.20;6.95;;;;;;;-4.44;73.75;100317.97;5071302;28;20083;-85
2022/01/09 02:00:12;;;;;;;20.53;7.83;;;;;;;-4.48;73.85;100338.06;5079590;28;20421;-83
2022/01/09 02:02:38;;;;;;;15.50;7.28;;;;;;;-4.47;73.83;100314.31;5084791;28;20287;-85
2022/01/09 02:05:07;;;;;;;17.23;7.38;;;;;;;-4.47;73.61;100294.81;5082335;28;20056;-85
2022/01/09 02:07:34;;;;;;;14.70;7.28;;;;;;;-4.45;73.20;100290.72;5076943;28;20048;-85
2022/01/09 02:10:10;;;;;;;14.65;6.63;;;;;;;-4.46;73.84;100316.09;5071596;28;20085;-85
2022/01/09 02:12:40;;;;;;;15.02;7.00;;;;;;;-4.67;73.62;100264.47;5093262;28;20048;-86
2022/01/09 02:15:29;;;;;;;17.25;6.30;;;;;;;-4.64;73.70;100278.34;5086235;28;20053;-86
2022/01/09 02:17:56;;;;;;;14.48;6.70;;;;;;;-4.50;74.05;100309.88;5076799;28;20071;-85
2022/01/09 02:20:23;;;;;;;16.02;7.10;;;;;;;-4.65;73.92;100268.03;5076181;28;20067;-85
2022/01/09 02:22:50;;;;;;;19.23;7.80;;;;;;;-4.51;73.90;100297.94;5075331;28;20055;-84
2022/01/09 02:25:17;;;;;;;17.95;7.18;;;;;;;-4.55;73.85;100284.06;5074699;28;20078;-84
2022/01/09 02:27:45;;;;;;;18.98;6.78;;;;;;;-4.46;73.77;100286.38;5076080;28;20048;-85
2022/01/09 02:30:12;;;;;;;16.02;7.20;;;;;;;-4.45;74.08;100293.25;5057753;28;20110;-86
2022/01/09 02:32:39;;;;;;;20.77;7.30;;;;;;;-4.41;73.73;100282.50;5058164;28;20503;-84
2022/01/09 02:35:07;;;;;;;18.42;6.47;;;;;;;-4.47;73.89;100271.88;5076068;28;20071;-85
2022/01/09 02:37:34;;;;;;;16.67;6.55;;;;;;;-4.55;73.76;100258.56;5083904;28;20043;-85
2022/01/09 02:40:02;;;;;;;15.40;7.00;;;;;;;-4.48;73.61;100275.19;5082145;28;20064;-84
2022/01/09 02:42:30;;;;;;;12.18;6.38;;;;;;;-4.50;73.81;100266.53;5057877;28;20095;-84
2022/01/09 02:44:58;;;;;;;14.57;7.00;;;;;;;-4.48;73.29;100272.63;5073987;28;20059;-83
2022/01/09 02:47:32;;;;;;;13.32;6.45;;;;;;;-4.46;73.66;100272.75;5073997;28;20122;-84
2022/01/09 02:50:55;;;;;;;15.48;6.68;;;;;;;-4.56;73.68;100274.66;5074427;28;20059;-85
2022/01/09 02:52:55;;;;;;;15.23;6.55;;;;;;;-4.49;73.69;100278.53;5049916;28;20059;-84
2022/01/09 02:55:24;;;;;;;16.10;6.93;;;;;;;-4.48;73.46;100295.59;5075603;28;20052;-84
2022/01/09 02:57:54;;;;;;;16.45;7.25;;;;;;;-4.62;73.80;100271.69;5073909;28;20508;-85
2022/01/09 03:00:28;;;;;;;17.05;7.53;;;;;;;-4.63;73.69;100294.50;5075701;28;20056;-86
2022/01/09 03:02:56;;;;;;;18.20;7.78;;;;;;;-4.74;73.56;100271.69;5074424;28;20098;-86
2022/01/09 03:05:25;;;;;;;18.65;8.00;;;;;;;-4.71;73.70;100283.78;5074779;28;20063;-85
2022/01/09 03:07:52;;;;;;;18.63;8.10;;;;;;;-4.88;73.95;100252.00;5074137;28;20056;-84
2022/01/09 03:10:20;;;;;;;18.23;7.90;;;;;;;-4.81;74.18;100263.53;5076027;28;20068;-85
2022/01/09 03:12:50;;;;;;;19.95;8.40;;;;;;;-4.89;74.07;100250.22;5074013;28;20044;-84
2022/01/09 03:15:17;;;;;;;23.38;8.75;;;;;;;-4.81;74.24;100246.56;5074544;28;20419;-84
2022/01/09 03:17:45;;;;;;;21.38;8.98;;;;;;;-4.78;74.42;100263.72;5057794;28;20143;-85
2022/01/09 03:20:17;;;;;;;23.80;9.15;;;;;;;-4.84;74.22;100248.91;5075270;28;20113;-85
2022/01/09 03:22:44;;;;;;;24.15;9.27;;;;;;;-4.86;74.38;100269.94;5075638;28;20051;-85
2022/01/09 03:25:12;;;;;;;18.63;8.48;;;;;;;-4.80;74.17;100281.44;5076071;28;20190;-88
2022/01/09 03:27:41;;;;;;;20.95;9.48;;;;;;;-4.91;73.96;100297.66;5055667;28;20098;-86
2022/01/09 03:30:09;;;;;;;23.13;9.38;;;;;;;-4.97;74.13;100287.91;5075504;28;20114;-85
2022/01/09 03:32:39;;;;;;;23.13;9.63;;;;;;;-5.02;74.64;100279.03;5070797;28;20075;-86
2022/01/09 03:35:10;;;;;;;27.42;9.80;;;;;;;-5.11;74.92;100265.66;5077573;28;20056;-85
2022/01/09 03:37:38;;;;;;;24.42;9.98;;;;;;;-4.99;74.75;100273.28;5083255;28;20060;-86
2022/01/09 03:40:07;;;;;;;22.05;9.68;;;;;;;-5.19;74.32;100234.50;5075166;28;20055;-84
2022/01/09 03:42:35;;;;;;;25.30;10.47;;;;;;;-5.04;74.04;100231.31;5057402;28;20044;-85
2022/01/09 03:45:04;;;;;;;22.40;9.65;;;;;;;-4.94;74.27;100246.47;5075751;28;20052;-84
2022/01/09 03:47:31;;;;;;;19.25;9.75;;;;;;;-4.87;74.40;100260.53;5074207;28;20133;-86
2022/01/09 03:49:58;;;;;;;24.80;10.32;;;;;;;-4.89;73.96;100244.25;5074163;28;20048;-86
2022/01/09 03:52:27;;;;;;;25.48;10.50;;;;;;;-4.83;74.17;100265.94;5072327;28;20087;-84
2022/01/09 03:54:55;;;;;;;25.30;10.63;;;;;;;-4.87;73.97;100256.31;5055812;28;20044;-85
2022/01/09 03:57:22;;;;;;;22.42;8.77;;;;;;;-4.85;74.15;100238.59;5071578;28;20139;-84
2022/01/09 03:59:49;;;;;;;25.50;10.45;;;;;;;-4.87;73.57;100253.75;5075048;28;20052;-86
2022/01/09 04:02:16;;;;;;;24.00;9.75;;;;;;;-4.92;73.81;100249.13;5084129;28;20056;-85
2022/01/09 04:04:43;;;;;;;23.10;9.98;;;;;;;-4.88;74.12;100236.72;5095327;28;20086;-85
2022/01/09 04:07:11;;;;;;;24.10;10.45;;;;;;;-4.99;73.87;100238.50;5095217;28;20055;-85
2022/01/09 04:09:39;;;;;;;23.08;10.27;;;;;;;-5.21;73.75;100187.66;5094230;28;20048;-84
2022/01/09 04:12:31;;;;;;;25.65;10.95;;;;;;;-5.06;73.43;100236.28;5077644;28;20068;-85
2022/01/09 04:15:02;;;;;;;21.65;9.90;;;;;;;-4.98;73.62;100257.22;5093874;28;20071;-85
2022/01/09 04:17:42;;;;;;;21.77;9.60;;;;;;;-4.99;73.63;100264.00;5093827;28;20109;-85
2022/01/09 04:20:10;;;;;;;22.88;9.32;;;;;;;-5.00;73.78;100257.09;5075735;28;20109;-85
2022/01/09 04:22:38;;;;;;;22.13;9.63;;;;;;;-5.05;73.65;100255.03;5075677;28;20078;-84
2022/01/09 04:25:05;;;;;;;23.50;10.27;;;;;;;-4.89;73.39;100275.69;5093386;28;20060;-85
2022/01/09 04:27:33;;;;;;;20.63;10.32;;;;;;;-4.83;73.03;100258.31;5093888;28;20056;-85
2022/01/09 04:30:00;;;;;;;20.02;9.52;;;;;;;-5.03;73.21;100233.09;5093864;28;20416;-86
2022/01/09 04:32:29;;;;;;;19.40;9.13;;;;;;;-4.89;72.88;100275.69;5095353;28;20501;-83
2022/01/09 04:34:56;;;;;;;21.08;8.68;;;;;;;-4.93;72.90;100276.25;5098574;28;20052;-84
2022/01/09 04:37:24;;;;;;;20.95;8.88;;;;;;;-5.10;72.73;100243.59;5084571;28;20047;-86
2022/01/09 04:39:52;;;;;;;19.63;8.70;;;;;;;-5.00;72.69;100258.78;5086243;28;20075;-85
2022/01/09 04:42:22;;;;;;;18.85;8.30;;;;;;;-5.06;72.21;100250.69;5060975;28;20044;-86
2022/01/09 04:44:50;;;;;;;20.23;7.85;;;;;;;-5.07;72.42;100260.00;5076887;28;20139;-85
2022/01/09 04:47:17;;;;;;;21.42;8.50;;;;;;;-5.06;72.21;100240.50;5076986;28;20071;-83
2022/01/09 04:49:46;;;;;;;19.33;8.25;;;;;;;-5.08;71.92;100237.81;5076130;28;20537;-85
2022/01/09 04:52:18;;;;;;;19.58;7.60;;;;;;;-5.23;71.81;100227.44;5076932;28;20063;-85
2022/01/09 04:54:46;;;;;;;15.52;7.65;;;;;;;-5.19;71.79;100231.09;5093112;28;20044;-86
2022/01/09 04:57:13;;;;;;;15.45;7.30;;;;;;;-5.22;71.73;100220.69;5095376;28;20072;-85
2022/01/09 04:59:40;;;;;;;19.40;8.57;;;;;;;-5.06;71.27;100240.50;5075410;28;20505;-85
2022/01/09 05:02:07;;;;;;;17.00;7.13;;;;;;;-5.17;71.31;100227.88;5095427;28;20063;-86
2022/01/09 05:04:34;;;;;;;16.52;6.95;;;;;;;-5.18;70.89;100235.44;5094247;28;20520;-85
2022/01/09 05:07:02;;;;;;;17.75;7.20;;;;;;;-5.21;70.69;100223.34;5092401;28;20048;-85
2022/01/09 05:09:29;;;;;;;15.32;6.65;;;;;;;-5.29;71.10;100231.19;5094244;28;20062;-88
2022/01/09 05:11:57;;;;;;;15.05;6.95;;;;;;;-5.09;70.69;100245.38;5095305;28;20109;-87
2022/01/09 05:14:24;;;;;;;17.33;6.85;;;;;;;-5.07;70.61;100254.91;5094062;28;20445;-88
2022/01/09 05:16:51;;;;;;;16.42;7.07;;;;;;;-5.08;70.68;100260.75;5096152;28;20048;-85
2022/01/09 05:19:21;;;;;;;15.30;7.03;;;;;;;-5.07;70.47;100257.44;5097515;28;20055;-84
2022/01/09 05:21:49;;;;;;;17.23;7.53;;;;;;;-5.10;70.51;100256.34;5099687;28;20055;-82
2022/01/09 05:24:16;;;;;;;17.20;7.78;;;;;;;-5.11;70.54;100246.94;5107261;28;20316;-82
2022/01/09 05:26:43;;;;;;;16.40;7.65;;;;;;;-5.10;70.39;100239.38;5095780;28;20112;-80
2022/01/09 05:29:11;;;;;;;15.57;7.15;;;;;;;-5.09;69.88;100251.34;5075082;28;20510;-83
2022/01/09 05:31:38;;;;;;;12.48;6.07;;;;;;;-5.11;70.07;100237.63;5058605;28;20502;-82
2022/01/09 05:34:06;;;;;;;18.08;7.95;;;;;;;-5.07;69.80;100236.19;5075738;28;20045;-83
2022/01/09 05:36:33;;;;;;;13.35;6.55;;;;;;;-5.17;69.72;100227.00;5074965;28;20527;-84
2022/01/09 05:39:01;;;;;;;14.02;6.07;;;;;;;-5.11;69.83;100247.81;5074026;28;20052;-86
2022/01/09 05:41:29;;;;;;;18.50;7.65;;;;;;;-5.13;69.75;100238.31;5072090;28;20108;-84
2022/01/09 05:43:56;;;;;;;16.15;7.20;;;;;;;-5.11;69.31;100241.84;5019274;28;20446;-86
2022/01/09 05:46:23;;;;;;;15.45;7.18;;;;;;;-5.09;69.32;100250.47;5054214;28;20056;-84
2022/01/09 05:48:50;;;;;;;15.00;6.78;;;;;;;-5.10;69.17;100239.38;5053803;28;20053;-85
2022/01/09 05:51:17;;;;;;;15.32;6.97;;;;;;;-5.11;68.97;100239.28;5053857;28;20060;-86
2022/01/09 05:53:44;;;;;;;17.45;7.25;;;;;;;-5.11;68.82;100244.38;5043189;28;20099;-85
2022/01/09 05:56:11;;;;;;;15.00;7.18;;;;;;;-5.11;68.84;100244.38;5058721;28;20053;-85
2022/01/09 05:58:39;;;;;;;16.23;6.53;;;;;;;-5.16;68.64;100239.84;5039481;28;20118;-85
2022/01/09 06:01:07;;;;;;;17.08;6.35;;;;;;;-5.30;68.89;100217.59;5023563;28;20413;-84
2022/01/09 06:03:35;;;;;;;15.93;6.95;;;;;;;-5.20;68.88;100247.16;5058229;28;20056;-85
2022/01/09 06:06:02;;;;;;;15.98;7.55;;;;;;;-5.18;68.33;100251.59;5057918;28;20140;-85
2022/01/09 06:08:30;;;;;;;17.55;7.00;;;;;;;-5.06;68.34;100263.44;5039577;28;20053;-84
2022/01/09 06:10:56;;;;;;;12.60;6.38;;;;;;;-4.99;68.05;100268.19;5057397;28;20053;-83
2022/01/09 06:13:24;;;;;;;15.82;7.20;;;;;;;-4.95;67.76;100265.06;5039691;28;20049;-81
2022/01/09 06:15:54;;;;;;;20.52;8.00;;;;;;;-5.05;67.83;100240.63;5041620;28;20147;-83
2022/01/09 06:18:21;;;;;;;17.73;7.47;;;;;;;-4.91;67.94;100253.44;5057783;28;20560;-82
2022/01/09 06:20:49;;;;;;;17.38;7.55;;;;;;;-4.90;67.58;100268.84;5039298;28;20053;-83
2022/01/09 06:23:20;;;;;;;19.15;7.43;;;;;;;-5.02;67.33;100229.75;5042992;28;20476;-83
2022/01/09 06:25:51;;;;;;;16.75;7.05;;;;;;;-4.95;67.70;100245.59;5077807;28;20044;-86
2022/01/09 06:28:19;;;;;;;19.40;7.25;;;;;;;-4.97;67.12;100267.53;5077655;28;20300;-85
2022/01/09 06:30:46;;;;;;;14.57;6.65;;;;;;;-4.72;66.79;100255.63;5077951;28;20057;-86
2022/01/09 06:33:14;;;;;;;16.08;7.05;;;;;;;-4.76;66.66;100240.09;5079240;28;20105;-85
2022/01/09 06:35:41;;;;;;;14.27;6.53;;;;;;;-4.65;66.34;100239.97;5088596;28;20506;-86
2022/01/09 06:38:08;;;;;;;13.90;6.22;;;;;;;-4.65;66.09;100255.28;5077975;28;20057;-86
2022/01/09 06:40:36;;;;;;;15.68;6.80;;;;;;;-4.47;66.36;100271.88;5043501;28;20422;-84
2022/01/09 06:43:03;;;;;;;13.45;6.30;;;;;;;-4.43;66.21;100263.66;5079213;28;20075;-86
2022/01/09 06:45:30;;;;;;;16.15;6.28;;;;;;;-4.38;65.56;100248.66;5079773;28;20052;-86
2022/01/09 06:47:58;;;;;;;17.75;7.10;;;;;;;-4.37;65.48;100258.06;5059934;28;20457;-86
2022/01/09 06:50:26;;;;;;;13.88;6.47;;;;;;;-4.45;65.27;100247.34;5078424;28;20056;-85
2022/01/09 06:52:54;;;;;;;15.50;6.40;;;;;;;-4.37;65.17;100270.81;5060237;28;20083;-85
2022/01/09 06:55:21;;;;;;;17.38;6.38;;;;;;;-4.45;65.25;100243.91;5076299;28;20059;-84
2022/01/09 06:57:48;;;;;;;14.02;6.90;;;;;;;-4.37;65.06;100260.63;5042619;28;20049;-84
2022/01/09 07:00:17;;;;;;;15.63;6.45;;;;;;;-4.47;65.18;100250.56;5076437;28;20070;-83
2022/01/09 07:02:45;;;;;;;14.52;6.88;;;;;;;-4.46;64.87;100260.88;5077263;28;20135;-86
2022/01/09 07:05:14;;;;;;;15.98;6.70;;;;;;;-4.51;65.42;100251.16;5075978;28;20052;-83
2022/01/09 07:07:41;;;;;;;19.65;7.90;;;;;;;-4.35;64.92;100272.69;5076805;28;20057;-83
2022/01/09 07:10:09;;;;;;;15.23;6.68;;;;;;;-4.41;64.59;100261.19;5076256;28;20091;-84
2022/01/09 07:12:36;;;;;;;14.77;6.65;;;;;;;-4.49;64.33;100260.66;5057788;28;20074;-84
2022/01/09 07:15:04;;;;;;;16.90;6.90;;;;;;;-4.52;64.72;100240.03;5077940;28;20056;-82
2022/01/09 07:17:32;;;;;;;15.68;6.55;;;;;;;-4.32;64.50;100244.88;5042100;28;20079;-83
2022/01/09 07:20:03;;;;;;;12.57;5.88;;;;;;;-4.52;64.04;100219.63;5077384;28;20052;-84
2022/01/09 07:22:30;;;;;;;17.02;6.45;;;;;;;-4.42;64.16;100264.53;5076467;28;20487;-85
2022/01/09 07:24:57;;;;;;;16.40;7.18;;;;;;;-4.40;64.34;100252.78;5075889;28;20707;-87
2022/01/09 07:27:24;;;;;;;12.13;6.18;;;;;;;-4.28;64.05;100250.16;5077729;28;20083;-83
2022/01/09 07:29:51;;;;;;;13.35;5.35;;;;;;;-4.29;63.64;100261.16;5085615;28;20056;-83
2022/01/09 07:32:18;;;;;;;14.50;6.95;;;;;;;-4.62;63.35;100205.38;5068180;28;20056;-83
2022/01/09 07:34:45;;;;;;;14.10;5.65;;;;;;;-4.48;63.70;100254.78;5069385;28;20174;-82
2022/01/09 07:37:12;;;;;;;17.10;7.95;;;;;;;-4.33;63.38;100248.19;5086694;28;20060;-84
2022/01/09 07:39:39;;;;;;;16.10;6.75;;;;;;;-4.25;63.22;100256.38;5069399;28;20139;-84
2022/01/09 07:42:07;;;;;;;15.20;5.70;;;;;;;-4.23;62.98;100253.94;5078919;28;20053;-85
2022/01/09 07:44:35;;;;;;;15.38;6.00;;;;;;;-4.19;62.90;100244.03;5059561;28;20411;-86
2022/01/09 07:47:05;;;;;;;17.55;6.43;;;;;;;-4.39;62.81;100206.06;5078259;28;20517;-84
2022/01/09 07:49:33;;;;;;;13.57;5.95;;;;;;;-4.05;62.57;100249.19;5081142;28;20154;-85
2022/01/09 07:52:00;;;;;;;15.95;6.35;;;;;;;-3.85;62.52;100250.50;5058888;28;20086;-86
2022/01/09 07:54:27;;;;;;;12.60;6.07;;;;;;;-3.78;62.13;100243.38;5057986;28;20063;-87
2022/01/09 07:56:54;;;;;;;13.80;6.65;;;;;;;-3.71;61.84;100237.00;5057697;28;20115;-84
2022/01/09 07:59:20;;;;;;;13.98;6.70;;;;;;;-3.71;61.76;100235.31;5058034;28;20541;-87
2022/01/09 08:01:51;;;;;;;14.80;6.43;;;;;;;-3.69;61.94;100257.53;5077508;28;20083;-88
2022/01/09 08:04:19;;;;;;;15.70;6.90;;;;;;;-3.81;62.34;100242.28;5076035;28;20705;-85
2022/01/09 08:06:47;;;;;;;16.17;6.38;;;;;;;-3.87;62.07;100239.31;5041843;28;20135;-86
2022/01/09 08:09:14;;;;;;;11.90;5.63;;;;;;;-3.89;62.02;100249.44;5058484;28;20648;-83
2022/01/09 08:11:41;;;;;;;15.00;6.03;;;;;;;-4.05;62.36;100221.97;5076538;28;20045;-87
2022/01/09 08:14:08;;;;;;;13.90;6.68;;;;;;;-4.01;61.77;100235.84;5057417;28;20048;-84
2022/01/09 08:16:35;;;;;;;14.35;6.63;;;;;;;-3.93;61.84;100227.91;5056346;28;20084;-84
2022/01/09 08:19:03;;;;;;;13.55;6.28;;;;;;;-3.84;61.56;100248.06;5061218;28;20052;-85
2022/01/09 08:21:30;;;;;;;21.02;8.35;;;;;;;-4.07;61.49;100202.25;5076854;28;20084;-86
2022/01/09 08:23:58;;;;;;;16.70;7.05;;;;;;;-3.94;61.64;100232.91;5074505;28;20052;-84
2022/01/09 08:26:25;;;;;;;14.52;6.00;;;;;;;-3.93;61.58;100248.34;5075116;28;20059;-87
2022/01/09 08:28:59;;;;;;;14.00;6.15;;;;;;;-3.95;61.47;100241.38;5057479;28;20527;-85
2022/01/09 08:34:45;;;;;;;14.70;6.45;;;;;;;-4.16;61.12;100189.78;5045505;28;20466;-83
2022/01/09 08:37:12;;;;;;;14.88;6.53;;;;;;;-3.81;60.99;100230.38;5054919;28;20053;-85
2022/01/09 08:39:44;;;;;;;14.60;6.00;;;;;;;-3.91;61.12;100218.69;5037472;28;20052;-86
2022/01/09 08:45:51;;;;;;;18.02;6.85;;;;;;;-3.85;61.07;100222.44;5046511;28;20132;-92
2022/01/09 08:48:57;;;;;;;14.55;6.60;;;;;;;-4.34;60.71;100149.50;5056240;28;20060;-90
2022/01/09 08:52:10;;;;;;;14.65;6.55;;;;;;;-4.03;60.73;100187.25;5043412;28;20072;-90
2022/01/09 08:54:51;;;;;;;12.32;5.45;;;;;;;-3.90;60.58;100194.06;5022493;28;20080;-88
2022/01/09 08:57:34;;;;;;;14.60;6.28;;;;;;;-3.78;60.16;100215.28;5055510;28;20055;-90
2022/01/09 09:00:18;;;;;;;15.65;6.78;;;;;;;-4.09;60.29;100180.84;5055194;28;20045;-89
2022/01/09 09:02:58;;;;;;;15.15;6.38;;;;;;;-4.15;60.53;100168.56;5021355;28;20053;-87
2022/01/09 09:05:26;;;;;;;11.65;6.22;;;;;;;-4.13;60.46;100177.19;5038199;28;20060;-85
2022/01/09 09:08:13;;;;;;;12.95;6.38;;;;;;;-3.75;60.17;100196.72;5039380;28;20087;-88
2022/01/09 09:11:00;;;;;;;14.85;6.22;;;;;;;-4.27;59.89;100120.19;5037948;28;20067;-89
2022/01/09 09:13:34;;;;;;;16.17;6.75;;;;;;;-3.95;59.59;100188.66;5037452;28;20679;-89
2022/01/09 09:16:16;;;;;;;17.85;5.80;;;;;;;-4.25;60.12;100154.31;5053809;28;20049;-88
2022/01/09 09:18:43;;;;;;;12.20;6.43;;;;;;;-3.86;60.06;100219.00;5053185;28;20075;-88
2022/01/09 09:21:32;;;;;;;12.30;6.25;;;;;;;-3.85;59.90;100214.78;5037418;28;20392;-88
2022/01/09 09:23:59;;;;;;;14.25;5.57;;;;;;;-3.83;59.74;100214.13;5036466;28;20053;-85
2022/01/09 09:26:26;;;;;;;15.32;7.10;;;;;;;-3.92;59.79;100208.38;5054759;28;20061;-86
2022/01/09 09:29:07;;;;;;;14.63;6.80;;;;;;;-3.93;59.90;100212.59;5045855;28;20052;-88
2022/01/09 09:31:46;;;;;;;14.68;6.75;;;;;;;-3.85;60.18;100207.13;5013048;28;20053;-87
2022/01/09 09:34:13;;;;;;;14.25;6.35;;;;;;;-4.22;59.96;100145.97;5054943;28;20455;-87
2022/01/09 09:36:40;;;;;;;14.32;6.65;;;;;;;-3.87;59.51;100196.81;5064051;28;20048;-89
2022/01/09 09:39:09;;;;;;;18.42;7.57;;;;;;;-3.80;59.97;100204.09;5074694;28;20079;-85
2022/01/09 09:41:38;;;;;;;14.77;6.43;;;;;;;-3.66;59.18;100217.75;5075944;28;20059;-88
2022/01/09 09:44:09;;;;;;;17.17;7.00;;;;;;;-3.54;59.00;100210.03;5053988;28;20067;-86
2022/01/09 09:46:37;;;;;;;15.43;6.80;;;;;;;-3.71;58.73;100173.16;5057783;28;20148;-91
2022/01/09 09:49:09;;;;;;;15.65;6.72;;;;;;;-3.82;58.78;100164.81;5057340;28;20576;-92
2022/01/09 09:51:36;;;;;;;17.92;8.23;;;;;;;-3.65;58.99;100198.22;5058318;28;20053;-88
2022/01/09 09:54:04;;;;;;;18.15;7.05;;;;;;;-3.67;58.91;100205.78;5023602;28;20061;-90
2022/01/09 09:56:36;;;;;;;16.58;7.30;;;;;;;-3.87;59.26;100166.19;5040999;28;20510;-90
2022/01/09 09:59:05;;;;;;;17.38;7.18;;;;;;;-3.74;58.92;100189.19;5058828;28;20114;-90
2022/01/09 10:01:36;;;;;;;16.88;7.35;;;;;;;-3.51;58.72;100203.44;5026336;28;20087;-88
2022/01/09 10:04:09;;;;;;;17.27;7.07;;;;;;;-3.44;58.71;100198.72;5053795;28;20072;-86
2022/01/09 10:06:42;;;;;;;20.17;8.00;;;;;;;-3.42;58.59;100198.06;5037210;28;20059;-86
2022/01/09 10:09:21;;;;;;;16.83;6.55;;;;;;;-3.48;58.49;100194.19;5037284;28;20091;-86
2022/01/09 10:11:53;;;;;;;18.27;8.23;;;;;;;-3.59;58.53;100199.50;5056420;28;20084;-84
2022/01/09 10:14:38;;;;;;;16.73;7.68;;;;;;;-3.56;58.58;100193.72;5037923;28;20060;-84
2022/01/09 10:17:21;;;;;;;20.20;8.35;;;;;;;-3.68;58.78;100157.16;5038724;28;20087;-86
2022/01/09 10:19:54;;;;;;;15.57;7.22;;;;;;;-3.46;58.26;100195.16;5056371;28;20144;-88
2022/01/09 10:22:33;;;;;;;21.35;8.07;;;;;;;-3.43;58.42;100185.16;5041870;28;20112;-86
2022/01/09 10:25:19;;;;;;;19.52;8.18;;;;;;;-3.41;58.32;100189.59;5026993;28;20049;-86
2022/01/09 10:27:55;;;;;;;19.13;8.75;;;;;;;-3.59;57.99;100167.94;5076927;28;20044;-84
2022/01/09 10:30:30;;;;;;;21.15;8.65;;;;;;;-3.39;58.21;100172.69;5070050;28;20064;-88
2022/01/09 10:33:00;;;;;;;24.58;9.57;;;;;;;-3.42;58.13;100182.72;5065640;28;20088;-86
2022/01/09 10:35:29;;;;;;;18.67;7.70;;;;;;;-3.35;58.20;100178.88;5066232;28;20052;-87
2022/01/09 10:38:15;;;;;;;18.08;8.40;;;;;;;-3.78;58.29;100107.19;5060592;28;20045;-86
2022/01/09 10:40:52;;;;;;;19.83;8.40;;;;;;;-3.40;58.33;100180.25;5042208;28;20461;-87
2022/01/09 10:43:25;;;;;;;20.10;8.00;;;;;;;-3.43;57.87;100174.94;5041834;28;20041;-88
2022/01/09 10:46:06;;;;;;;17.27;7.95;;;;;;;-3.76;58.37;100134.56;5025285;28;20454;-88
2022/01/09 10:48:42;;;;;;;22.92;8.68;;;;;;;-3.69;57.98;100135.84;5057886;28;20053;-86
2022/01/09 10:51:12;;;;;;;19.83;8.18;;;;;;;-3.46;57.63;100170.53;5057645;28;20064;-86
2022/01/09 10:53:41;;;;;;;19.73;8.00;;;;;;;-3.56;57.99;100160.50;5057153;28;20081;-86
2022/01/09 10:56:13;;;;;;;21.38;8.18;;;;;;;-3.56;57.89;100161.38;5056544;28;20075;-85
2022/01/09 10:58:49;;;;;;;22.45;8.02;;;;;;;-3.67;57.86;100134.28;5057450;28;20149;-86
2022/01/09 11:01:28;;;;;;;23.80;8.40;;;;;;;-3.41;57.43;100168.28;5041167;28;20057;-87
2022/01/09 11:03:59;;;;;;;20.33;7.82;;;;;;;-3.40;57.54;100167.47;5058815;28;20103;-87
2022/01/09 11:06:32;;;;;;;20.27;7.93;;;;;;;-3.65;57.58;100127.59;5039664;28;20051;-85
2022/01/09 11:09:02;;;;;;;19.25;7.68;;;;;;;-3.69;57.62;100140.09;5058472;28;20148;-85
2022/01/09 11:11:41;;;;;;;21.30;8.68;;;;;;;-3.76;57.85;100139.69;5052545;28;20053;-86
2022/01/09 11:14:17;;;;;;;19.02;7.50;;;;;;;-3.51;57.64;100159.13;5070737;28;20514;-86
2022/01/09 11:16:52;;;;;;;16.05;7.00;;;;;;;-3.55;57.17;100150.41;5072870;28;20098;-85
2022/01/09 11:19:23;;;;;;;19.17;7.32;;;;;;;-3.54;57.26;100149.59;5025824;28;20055;-87
2022/01/09 11:22:02;;;;;;;18.17;7.47;;;;;;;-3.47;57.20;100155.97;5048264;28;20049;-85
2022/01/09 11:24:29;;;;;;;15.32;7.28;;;;;;;-3.41;56.96;100153.81;5057186;28;20084;-86
2022/01/09 11:27:15;;;;;;;17.50;7.18;;;;;;;-3.40;57.12;100155.59;5054841;28;20102;-84
2022/01/09 11:29:51;;;;;;;15.90;6.88;;;;;;;-3.39;56.62;100151.38;5056916;28;20103;-85
2022/01/09 11:32:32;;;;;;;15.95;7.25;;;;;;;-3.36;57.07;100139.66;5057355;28;20510;-90
2022/01/09 11:35:09;;;;;;;17.08;7.00;;;;;;;-3.46;56.95;100124.56;5057047;28;20164;-86
2022/01/09 11:37:48;;;;;;;18.05;7.53;;;;;;;-3.46;57.02;100129.66;5058013;28;20053;-86